createdAt,value
2019-04-28T00:00:41.842Z,7.94
2019-04-28T00:03:29.632Z,7.94
2019-04-28T00:06:17.728Z,8.02
2019-04-28T00:09:07.026Z,8.08
2019-04-28T00:11:56.075Z,8.20
2019-04-28T00:14:44.693Z,8.05
2019-04-28T00:17:33.467Z,7.61
2019-04-28T00:20:31.141Z,7.55
2019-04-28T00:23:28.487Z,7.43
2019-04-28T00:26:31.061Z,7.50
2019-04-28T00:29:21.017Z,7.44
2019-04-28T00:32:11.234Z,7.48
2019-04-28T00:34:59.859Z,7.34
2019-04-28T00:37:48.630Z,7.42
2019-04-28T00:40:36.481Z,7.62
2019-04-28T00:43:24.290Z,7.68
2019-04-28T00:46:13.385Z,7.83
2019-04-28T00:49:02.205Z,7.77
2019-04-28T00:51:50.915Z,7.01
2019-04-28T00:54:39.208Z,7.33
2019-04-28T00:57:28.028Z,7.23
2019-04-28T01:00:17.928Z,7.17
2019-04-28T01:03:06.264Z,7.17
2019-04-28T01:05:54.813Z,7.22
2019-04-28T01:08:42.991Z,7.41
2019-04-28T01:11:31.646Z,7.37
2019-04-28T01:14:21.330Z,7.39
2019-04-28T01:17:21.072Z,7.39
2019-04-28T01:20:10.737Z,7.40
2019-04-28T01:23:00.474Z,7.39
2019-04-28T01:25:50.038Z,7.40
2019-04-28T01:28:39.777Z,7.38
2019-04-28T01:31:39.728Z,7.56
2019-04-28T01:34:27.307Z,7.39
2019-04-28T01:37:15.692Z,7.29
2019-04-28T01:40:04.026Z,7.28
2019-04-28T01:42:52.264Z,7.33
2019-04-28T01:45:41.607Z,7.48
2019-04-28T01:48:31.533Z,7.47
2019-04-28T01:51:20.880Z,7.61
2019-04-28T01:54:09.795Z,7.43
2019-04-28T01:57:00.965Z,7.44
2019-04-28T01:59:49.987Z,7.32
2019-04-28T02:02:40.644Z,7.19
2019-04-28T02:05:29.541Z,6.94
2019-04-28T02:08:17.549Z,6.62
2019-04-28T02:11:06.343Z,6.44
2019-04-28T02:13:54.093Z,6.59
2019-04-28T02:16:42.450Z,6.67
2019-04-28T02:19:33.001Z,6.74
2019-04-28T02:22:31.866Z,6.72
2019-04-28T02:25:21.407Z,6.70
2019-04-28T02:28:11.741Z,6.87
2019-04-28T02:31:02.085Z,6.73
2019-04-28T02:33:50.494Z,6.83
2019-04-28T02:36:40.831Z,6.74
2019-04-28T02:39:31.168Z,6.74
2019-04-28T02:42:20.911Z,6.77
2019-04-28T02:45:11.295Z,6.89
2019-04-28T02:48:02.104Z,6.86
2019-04-28T02:51:11.388Z,6.77
2019-04-28T02:54:00.594Z,6.66
2019-04-28T02:56:51.025Z,6.66
2019-04-28T02:59:40.971Z,6.58
2019-04-28T03:02:28.579Z,6.58
2019-04-28T03:05:17.601Z,6.74
2019-04-28T03:08:05.891Z,6.65
2019-04-28T03:10:54.402Z,6.68
2019-04-28T03:13:42.814Z,6.63
2019-04-28T03:16:31.307Z,6.77
2019-04-28T03:19:21.128Z,6.86
2019-04-28T03:22:11.239Z,6.82
2019-04-28T03:25:00.892Z,6.68
2019-04-28T03:28:05.617Z,6.78
2019-04-28T03:32:07.468Z,6.43
2019-04-28T03:34:23.411Z,6.44
2019-04-28T03:37:11.528Z,6.01
2019-04-28T03:40:00.520Z,5.99
2019-04-28T03:42:51.167Z,5.51
2019-04-28T03:45:43.381Z,5.45
2019-04-28T03:48:33.526Z,5.53
2019-04-28T03:51:21.222Z,5.71
2019-04-28T03:54:10.365Z,5.73
2019-04-28T03:57:01.337Z,5.81
2019-04-28T03:59:51.136Z,5.09
2019-04-28T04:02:41.347Z,5.40
2019-04-28T04:05:30.777Z,5.51
2019-04-28T04:08:21.000Z,5.30
2019-04-28T04:11:31.333Z,5.48
2019-04-28T04:14:56.609Z,5.67
2019-04-28T04:18:11.025Z,5.50
2019-04-28T04:21:00.788Z,5.76
2019-04-28T04:23:50.763Z,6.14
2019-04-28T04:26:40.710Z,6.26
2019-04-28T04:29:27.564Z,6.47
2019-04-28T04:32:23.312Z,6.67
2019-04-28T04:35:05.843Z,6.83
2019-04-28T04:37:54.560Z,6.90
2019-04-28T04:40:42.444Z,6.81
2019-04-28T04:43:31.053Z,6.79
2019-04-28T04:46:23.576Z,6.34
2019-04-28T04:49:11.084Z,6.42
2019-04-28T04:52:00.431Z,6.81
2019-04-28T04:54:51.046Z,7.33
2019-04-28T04:57:37.888Z,7.61
2019-04-28T05:00:36.977Z,7.73
2019-04-28T05:03:29.718Z,7.81
2019-04-28T05:06:36.066Z,8.01
2019-04-28T05:09:24.284Z,8.00
2019-04-28T05:12:12.599Z,8.40
2019-04-28T05:15:01.660Z,8.52
2019-04-28T05:17:50.355Z,9.03
2019-04-28T05:20:40.411Z,9.34
2019-04-28T05:23:56.157Z,9.60
2019-04-28T05:26:47.545Z,9.09
2019-04-28T05:29:34.406Z,9.13
2019-04-28T05:32:23.047Z,8.90
2019-04-28T05:35:11.850Z,8.43
2019-04-28T05:38:01.152Z,8.27
2019-04-28T05:40:50.105Z,8.77
2019-04-28T05:43:40.408Z,9.23
2019-04-28T05:46:29.995Z,9.42
2019-04-28T05:49:32.848Z,9.76
2019-04-28T05:52:41.676Z,9.82
2019-04-28T05:55:39.346Z,9.93
2019-04-28T05:58:50.430Z,9.77
2019-04-28T06:01:56.943Z,9.72
2019-04-28T06:04:45.265Z,9.29
2019-04-28T06:07:50.341Z,9.41
2019-04-28T06:10:40.930Z,9.34
2019-04-28T06:13:30.277Z,9.66
2019-04-28T06:16:19.578Z,9.69
2019-04-28T06:19:09.767Z,10.25
2019-04-28T06:21:57.587Z,10.88
2019-04-28T06:24:45.553Z,11.39
2019-04-28T06:27:33.587Z,12.09
2019-04-28T06:30:21.721Z,12.97
2019-04-28T06:33:10.700Z,12.62
2019-04-28T06:36:00.260Z,12.64
2019-04-28T06:38:49.598Z,12.93
2019-04-28T06:41:37.760Z,13.28
2019-04-28T06:44:25.936Z,13.54
2019-04-28T06:47:16.786Z,13.77
2019-04-28T06:50:04.808Z,14.19
2019-04-28T06:52:56.609Z,14.13
2019-04-28T06:55:45.060Z,14.19
2019-04-28T06:58:33.493Z,14.24
2019-04-28T07:01:22.204Z,14.42
2019-04-28T07:04:15.889Z,14.99
2019-04-28T07:07:04.736Z,15.25
2019-04-28T07:09:52.391Z,15.48
2019-04-28T07:12:41.126Z,15.51
2019-04-28T07:15:35.420Z,15.49
2019-04-28T07:18:23.607Z,15.09
2019-04-28T07:21:29.660Z,14.96
2019-04-28T07:24:18.319Z,14.56
2019-04-28T07:27:07.868Z,14.95
2019-04-28T07:29:56.327Z,15.24
2019-04-28T07:32:44.947Z,15.57
2019-04-28T07:35:33.634Z,15.46
2019-04-28T07:38:22.308Z,15.65
2019-04-28T07:41:11.283Z,15.49
2019-04-28T07:43:59.789Z,15.63
2019-04-28T07:46:47.579Z,15.43
2019-04-28T07:49:37.555Z,15.47
2019-04-28T07:52:40.333Z,15.18
2019-04-28T07:55:38.104Z,15.16
2019-04-28T07:58:25.718Z,15.22
2019-04-28T08:01:19.020Z,15.13
2019-04-28T08:04:07.023Z,15.52
2019-04-28T08:06:55.527Z,15.94
2019-04-28T08:09:44.141Z,15.68
2019-04-28T08:12:32.356Z,16.17
2019-04-28T08:15:20.582Z,16.17
2019-04-28T08:18:08.815Z,16.62
2019-04-28T08:20:56.771Z,16.78
2019-04-28T08:23:47.420Z,16.47
2019-04-28T08:26:37.557Z,17.25
2019-04-28T08:29:25.957Z,17.72
2019-04-28T08:32:23.918Z,17.84
2019-04-28T08:35:12.839Z,17.83
2019-04-28T08:38:02.273Z,17.61
2019-04-28T08:40:50.453Z,18.07
2019-04-28T08:43:38.635Z,17.97
2019-04-28T08:46:27.247Z,18.21
2019-04-28T08:49:15.745Z,17.75
2019-04-28T08:52:04.335Z,17.01
2019-04-28T08:54:52.758Z,16.86
2019-04-28T08:57:41.033Z,17.23
2019-04-28T09:00:29.510Z,17.31
2019-04-28T09:03:17.402Z,17.65
2019-04-28T09:06:06.912Z,17.57
2019-04-28T09:08:55.350Z,17.68
2019-04-28T09:11:43.856Z,17.46
2019-04-28T09:14:31.994Z,17.60
2019-04-28T09:17:19.870Z,17.39
2019-04-28T09:20:08.570Z,17.48
2019-04-28T09:22:57.083Z,17.69
2019-04-28T09:25:44.954Z,17.83
2019-04-28T09:28:33.683Z,17.99
2019-04-28T09:31:22.315Z,18.06
2019-04-28T09:34:10.996Z,18.26
2019-04-28T09:36:59.174Z,18.24
2019-04-28T09:39:57.918Z,18.65
2019-04-28T09:43:06.869Z,18.58
2019-04-28T09:45:57.529Z,18.43
2019-04-28T09:48:45.116Z,18.59
2019-04-28T09:51:33.302Z,18.17
2019-04-28T09:54:21.848Z,18.39
2019-04-28T09:57:10.047Z,18.18
2019-04-28T09:59:58.279Z,18.89
2019-04-28T10:02:46.044Z,18.39
2019-04-28T10:05:33.871Z,18.69
2019-04-28T10:08:23.148Z,18.90
2019-04-28T10:11:11.351Z,18.67
2019-04-28T10:13:59.416Z,18.83
2019-04-28T10:16:47.151Z,18.80
2019-04-28T10:19:36.348Z,18.48
2019-04-28T10:22:24.850Z,18.50
2019-04-28T10:25:13.729Z,18.97
2019-04-28T10:28:02.637Z,18.81
2019-04-28T10:30:51.065Z,18.73
2019-04-28T10:33:41.825Z,19.00
2019-04-28T10:36:31.455Z,19.33
2019-04-28T10:39:26.176Z,19.02
2019-04-28T10:42:14.126Z,19.42
2019-04-28T10:45:04.539Z,19.98
2019-04-28T10:47:52.304Z,19.06
2019-04-28T10:50:43.060Z,19.42
2019-04-28T10:53:31.020Z,18.72
2019-04-28T10:56:19.495Z,18.61
2019-04-28T10:59:07.934Z,18.88
2019-04-28T11:01:56.439Z,19.02
2019-04-28T11:05:08.442Z,19.41
2019-04-28T11:07:55.772Z,19.51
2019-04-28T11:10:44.271Z,19.88
2019-04-28T11:13:32.449Z,19.97
2019-04-28T11:16:23.579Z,19.80
2019-04-28T11:19:12.303Z,18.86
2019-04-28T11:22:00.520Z,19.27
2019-04-28T11:24:48.368Z,19.00
2019-04-28T11:27:36.960Z,19.32
2019-04-28T11:30:25.636Z,18.95
2019-04-28T11:33:35.503Z,18.83
2019-04-28T11:36:24.627Z,18.89
2019-04-28T11:39:17.451Z,18.87
2019-04-28T11:42:05.374Z,19.05
2019-04-28T11:44:53.786Z,19.38
2019-04-28T11:47:41.607Z,18.85
2019-04-28T11:50:30.447Z,19.57
2019-04-28T11:53:18.516Z,19.27
2019-04-28T11:56:06.062Z,18.87
2019-04-28T11:58:54.184Z,19.18
2019-04-28T12:01:42.404Z,19.12
2019-04-28T12:04:30.548Z,18.88
2019-04-28T12:07:18.978Z,18.98
2019-04-28T12:10:13.252Z,19.78
2019-04-28T12:13:23.920Z,19.46
2019-04-28T12:16:30.775Z,19.16
2019-04-28T12:19:26.811Z,19.10
2019-04-28T12:22:15.486Z,19.33
2019-04-28T12:25:04.360Z,18.98
2019-04-28T12:27:52.983Z,18.68
2019-04-28T12:30:41.215Z,19.34
2019-04-28T12:33:29.767Z,19.81
2019-04-28T12:36:18.493Z,19.77
2019-04-28T12:39:08.204Z,19.93
2019-04-28T12:41:56.748Z,20.32
2019-04-28T12:44:44.967Z,20.10
2019-04-28T12:47:33.166Z,20.47
2019-04-28T12:50:27.036Z,20.62
2019-04-28T12:53:16.247Z,20.76
2019-04-28T12:56:04.475Z,21.15
2019-04-28T12:58:55.009Z,20.65
2019-04-28T13:01:56.330Z,20.35
2019-04-28T13:04:48.347Z,20.23
2019-04-28T13:07:36.884Z,19.55
2019-04-28T13:10:24.989Z,20.50
2019-04-28T13:13:14.655Z,20.02
2019-04-28T13:16:03.185Z,19.75
2019-04-28T13:18:51.065Z,19.31
2019-04-28T13:21:39.689Z,19.89
2019-04-28T13:24:28.257Z,19.50
2019-04-28T13:27:19.508Z,19.39
2019-04-28T13:30:07.852Z,19.44
2019-04-28T13:32:56.336Z,19.95
2019-04-28T13:35:45.316Z,20.86
2019-04-28T13:38:33.929Z,21.13
2019-04-28T13:41:21.648Z,21.04
2019-04-28T13:44:13.183Z,20.80
2019-04-28T13:47:01.112Z,20.90
2019-04-28T13:49:58.776Z,20.06
2019-04-28T13:52:46.925Z,20.16
2019-04-28T13:56:03.675Z,21.06
2019-04-28T13:58:57.207Z,21.80
2019-04-28T14:02:02.014Z,21.76
2019-04-28T14:05:18.858Z,21.48
2019-04-28T14:08:06.877Z,22.21
2019-04-28T14:10:55.243Z,22.71
2019-04-28T14:13:43.467Z,22.74
2019-04-28T14:16:31.777Z,22.57
2019-04-28T14:19:19.675Z,23.05
2019-04-28T14:22:08.083Z,23.00
2019-04-28T14:24:56.215Z,23.38
2019-04-28T14:27:44.849Z,24.28
2019-04-28T14:30:33.481Z,24.90
2019-04-28T14:33:22.174Z,24.42
2019-04-28T14:36:10.274Z,22.50
2019-04-28T14:38:58.696Z,23.38
2019-04-28T14:41:46.528Z,23.31
2019-04-28T14:44:34.861Z,23.75
2019-04-28T14:47:23.000Z,23.38
2019-04-28T14:50:11.115Z,24.22
2019-04-28T14:52:59.235Z,24.80
2019-04-28T14:55:47.660Z,25.51
2019-04-28T14:58:36.006Z,24.48
2019-04-28T15:01:46.888Z,25.18
2019-04-28T15:04:52.835Z,23.74
2019-04-28T15:07:59.549Z,22.88
2019-04-28T15:10:56.652Z,23.14
2019-04-28T15:13:45.238Z,22.64
2019-04-28T15:16:34.019Z,20.55
2019-04-28T15:19:22.375Z,19.51
2019-04-28T15:22:10.385Z,19.40
2019-04-28T15:24:58.630Z,18.85
2019-04-28T15:27:47.045Z,18.81
2019-04-28T15:30:35.192Z,18.59
2019-04-28T15:33:23.922Z,18.38
2019-04-28T15:36:12.035Z,18.27
2019-04-28T15:39:00.536Z,18.01
2019-04-28T15:41:48.717Z,18.21
2019-04-28T15:44:36.772Z,18.11
2019-04-28T15:47:24.687Z,17.95
2019-04-28T15:50:13.323Z,17.81
2019-04-28T15:53:01.923Z,17.60
2019-04-28T15:56:05.707Z,17.90
2019-04-28T15:58:56.715Z,17.73
2019-04-28T16:01:44.306Z,17.83
2019-04-28T16:04:32.872Z,17.63
2019-04-28T16:07:25.222Z,17.68
2019-04-28T16:10:10.693Z,17.60
2019-04-28T16:12:58.855Z,17.58
2019-04-28T16:15:47.172Z,17.32
2019-04-28T16:18:35.394Z,17.22
2019-04-28T16:21:23.461Z,17.30
2019-04-28T16:24:12.056Z,17.27
2019-04-28T16:27:00.790Z,17.21
2019-04-28T16:29:52.225Z,16.95
2019-04-28T16:32:40.648Z,16.87
2019-04-28T16:35:29.229Z,16.78
2019-04-28T16:38:17.455Z,16.75
2019-04-28T16:41:09.230Z,16.70
2019-04-28T16:44:02.104Z,16.59
2019-04-28T16:46:50.588Z,16.46
2019-04-28T16:49:39.239Z,16.32
2019-04-28T16:52:27.003Z,16.03
2019-04-28T16:55:19.996Z,15.93
2019-04-28T16:58:28.291Z,15.79
2019-04-28T17:01:40.412Z,15.62
2019-04-28T17:04:31.172Z,15.76
2019-04-28T17:07:19.501Z,15.48
2019-04-28T17:10:07.795Z,15.21
2019-04-28T17:12:55.689Z,15.06
2019-04-28T17:15:43.615Z,15.00
2019-04-28T17:18:31.859Z,14.98
2019-04-28T17:21:19.922Z,14.95
2019-04-28T17:24:07.768Z,14.65
2019-04-28T17:26:56.049Z,14.52
2019-04-28T17:29:44.344Z,14.44
2019-04-28T17:32:32.720Z,14.34
2019-04-28T17:35:20.667Z,14.19
2019-04-28T17:38:09.504Z,13.99
2019-04-28T17:41:01.173Z,13.93
2019-04-28T17:43:49.131Z,13.30
2019-04-28T17:46:37.979Z,13.08
2019-04-28T17:49:33.641Z,12.79
2019-04-28T17:52:30.124Z,12.53
2019-04-28T17:55:19.709Z,12.51
2019-04-28T17:58:07.964Z,12.37
2019-04-28T18:01:15.292Z,12.37
2019-04-28T18:04:25.233Z,12.60
2019-04-28T18:07:17.449Z,12.53
2019-04-28T18:10:06.780Z,12.40
2019-04-28T18:13:00.583Z,12.50
2019-04-28T18:15:54.816Z,12.49
2019-04-28T18:18:45.708Z,12.53
2019-04-28T18:21:34.860Z,12.40
2019-04-28T18:24:24.578Z,12.47
2019-04-28T18:27:12.788Z,12.48
2019-04-28T18:30:01.593Z,12.38
2019-04-28T18:33:11.931Z,12.25
2019-04-28T18:36:08.145Z,12.26
2019-04-28T18:39:06.921Z,12.21
2019-04-28T18:42:10.836Z,12.11
2019-04-28T18:44:58.652Z,12.09
2019-04-28T18:47:47.170Z,12.07
2019-04-28T18:50:35.711Z,11.83
2019-04-28T18:53:24.220Z,11.70
2019-04-28T18:56:13.956Z,11.79
2019-04-28T18:59:02.405Z,11.69
2019-04-28T19:02:07.095Z,11.63
2019-04-28T19:04:55.863Z,11.48
2019-04-28T19:08:11.951Z,11.69
2019-04-28T19:11:09.513Z,11.71
2019-04-28T19:14:02.905Z,11.67
2019-04-28T19:17:22.691Z,11.56
2019-04-28T19:20:13.709Z,10.94
2019-04-28T19:23:02.097Z,10.55
2019-04-28T19:25:50.031Z,10.77
2019-04-28T19:28:38.240Z,10.95
2019-04-28T19:31:26.432Z,10.90
2019-04-28T19:34:15.150Z,10.86
2019-04-28T19:37:03.706Z,10.79
2019-04-28T19:39:52.251Z,10.88
2019-04-28T19:42:40.856Z,10.87
2019-04-28T19:45:30.240Z,10.81
2019-04-28T19:48:18.680Z,10.73
2019-04-28T19:51:07.224Z,10.61
2019-04-28T19:53:55.716Z,10.61
2019-04-28T19:56:53.480Z,10.59
2019-04-28T20:00:09.028Z,10.53
2019-04-28T20:02:56.977Z,10.28
2019-04-28T20:05:46.541Z,9.80
2019-04-28T20:08:34.408Z,9.28
2019-04-28T20:11:22.638Z,9.16
2019-04-28T20:14:11.184Z,9.14
2019-04-28T20:16:59.952Z,9.20
2019-04-28T20:19:48.392Z,9.24
2019-04-28T20:22:36.632Z,8.86
2019-04-28T20:25:26.388Z,8.21
2019-04-28T20:28:14.476Z,8.22
2019-04-28T20:31:02.668Z,8.33
2019-04-28T20:33:50.683Z,8.01
2019-04-28T20:36:57.012Z,7.92
2019-04-28T20:39:47.924Z,8.10
2019-04-28T20:42:43.741Z,8.31
2019-04-28T20:45:32.347Z,8.24
2019-04-28T20:48:20.619Z,8.54
2019-04-28T20:51:09.155Z,8.74
2019-04-28T20:53:57.609Z,8.70
2019-04-28T20:56:46.659Z,8.63
2019-04-28T20:59:34.666Z,8.67
2019-04-28T21:02:22.915Z,8.71
2019-04-28T21:05:11.776Z,7.86
2019-04-28T21:08:00.372Z,7.26
2019-04-28T21:10:47.917Z,7.25
2019-04-28T21:13:35.714Z,7.14
2019-04-28T21:16:24.187Z,7.53
2019-04-28T21:19:13.388Z,7.51
2019-04-28T21:22:01.758Z,7.51
2019-04-28T21:24:49.885Z,7.80
2019-04-28T21:27:38.297Z,8.04
2019-04-28T21:30:26.499Z,8.15
2019-04-28T21:33:14.716Z,8.21
2019-04-28T21:36:03.168Z,8.17
2019-04-28T21:38:51.618Z,7.91
2019-04-28T21:41:39.440Z,8.05
2019-04-28T21:44:41.331Z,8.28
2019-04-28T21:47:31.239Z,8.05
2019-04-28T21:50:19.424Z,7.12
2019-04-28T21:53:07.522Z,6.37
2019-04-28T21:55:56.276Z,6.73
2019-04-28T21:58:45.961Z,6.92
2019-04-28T22:01:33.990Z,7.03
2019-04-28T22:04:22.561Z,7.25
2019-04-28T22:07:11.049Z,7.48
2019-04-28T22:09:59.592Z,7.54
2019-04-28T22:12:48.132Z,7.56
2019-04-28T22:15:36.685Z,7.57
2019-04-28T22:18:25.196Z,7.20
2019-04-28T22:21:14.130Z,6.98
2019-04-28T22:24:17.372Z,6.81
2019-04-28T22:27:05.980Z,6.68
2019-04-28T22:29:54.291Z,6.71
2019-04-28T22:32:42.163Z,6.75
2019-04-28T22:35:30.665Z,6.85
2019-04-28T22:38:19.636Z,7.04
2019-04-28T22:41:07.996Z,6.92
2019-04-28T22:43:56.066Z,7.17
2019-04-28T22:46:46.522Z,7.35
2019-04-28T22:49:36.441Z,7.45
2019-04-28T22:52:24.469Z,7.50
2019-04-28T22:55:17.434Z,7.62
2019-04-28T22:58:39.524Z,6.83
2019-04-28T23:01:30.970Z,6.28
2019-04-28T23:04:25.795Z,5.53
2019-04-28T23:07:14.306Z,5.49
2019-04-28T23:10:02.239Z,5.92
2019-04-28T23:12:50.680Z,6.37
2019-04-28T23:15:39.169Z,6.60
2019-04-28T23:18:27.555Z,6.51
2019-04-28T23:21:30.499Z,6.04
2019-04-28T23:24:18.105Z,6.13
2019-04-28T23:27:06.548Z,6.41
2019-04-28T23:29:55.000Z,6.35
2019-04-28T23:32:43.092Z,6.75
2019-04-28T23:35:31.649Z,6.42
2019-04-28T23:38:19.911Z,5.71
2019-04-28T23:41:35.855Z,5.24
2019-04-28T23:44:24.216Z,5.71
2019-04-28T23:47:12.619Z,6.11
2019-04-28T23:50:00.376Z,5.95
2019-04-28T23:52:55.179Z,6.32
2019-04-28T23:55:43.698Z,6.62
2019-04-28T23:58:32.298Z,6.59
